sensor_id;sensor_type;location;lat;lon;timestamp;pressure;altitude;pressure_sealevel;temperature;humidity
44044;BME280;29709;52.396;16.796;2022-12-29T00:00:24;101115.24;;;7.62;80.16
44044;BME280;29709;52.396;16.796;2022-12-29T00:03:53;101108.00;;;7.61;80.29
44044;BME280;29709;52.396;16.796;2022-12-29T00:06:57;101110.74;;;7.61;80.13
44044;BME280;29709;52.396;16.796;2022-12-29T00:10:00;101111.48;;;7.63;80.24
44044;BME280;29709;52.396;16.796;2022-12-29T00:13:04;101096.80;;;7.64;79.99
44044;BME280;29709;52.396;16.796;2022-12-29T00:16:19;101095.79;;;7.65;79.80
44044;BME280;29709;52.396;16.796;2022-12-29T00:19:22;101093.77;;;7.67;79.65
44044;BME280;29709;52.396;16.796;2022-12-29T00:22:38;101073.45;;;7.60;79.79
44044;BME280;29709;52.396;16.796;2022-12-29T00:25:54;101079.06;;;7.58;79.25
44044;BME280;29709;52.396;16.796;2022-12-29T00:29:09;101080.08;;;7.57;79.68
44044;BME280;29709;52.396;16.796;2022-12-29T00:32:25;101071.16;;;7.55;79.18
44044;BME280;29709;52.396;16.796;2022-12-29T00:35:46;101076.78;;;7.53;79.49
44044;BME280;29709;52.396;16.796;2022-12-29T00:38:59;101075.05;;;7.52;79.18
44044;BME280;29709;52.396;16.796;2022-12-29T00:42:14;101071.45;;;7.52;79.23
44044;BME280;29709;52.396;16.796;2022-12-29T00:45:29;101069.29;;;7.56;79.14
44044;BME280;29709;52.396;16.796;2022-12-29T00:48:57;101067.56;;;7.55;79.07
44044;BME280;29709;52.396;16.796;2022-12-29T00:52:13;101052.44;;;7.60;79.08
44044;BME280;29709;52.396;16.796;2022-12-29T00:55:16;101045.84;;;7.63;78.72
44044;BME280;29709;52.396;16.796;2022-12-29T00:58:20;101054.76;;;7.65;78.46
44044;BME280;29709;52.396;16.796;2022-12-29T01:01:23;101056.34;;;7.67;78.40
44044;BME280;29709;52.396;16.796;2022-12-29T01:04:26;101053.45;;;7.69;78.29
44044;BME280;29709;52.396;16.796;2022-12-29T01:07:30;101051.43;;;7.71;77.99
44044;BME280;29709;52.396;16.796;2022-12-29T01:10:33;101048.28;;;7.75;77.91
44044;BME280;29709;52.396;16.796;2022-12-29T01:14:02;101051.88;;;7.76;77.85
44044;BME280;29709;52.396;16.796;2022-12-29T01:17:06;101057.91;;;7.79;77.50
44044;BME280;29709;52.396;16.796;2022-12-29T01:20:09;101043.96;;;7.83;77.68
44044;BME280;29709;52.396;16.796;2022-12-29T01:23:14;101039.62;;;7.90;77.27
44044;BME280;29709;52.396;16.796;2022-12-29T01:26:17;101039.77;;;7.98;77.10
44044;BME280;29709;52.396;16.796;2022-12-29T01:29:21;101034.00;;;8.01;76.65
44044;BME280;29709;52.396;16.796;2022-12-29T01:32:25;101034.13;;;8.09;76.31
44044;BME280;29709;52.396;16.796;2022-12-29T01:35:28;101031.68;;;8.16;75.97
44044;BME280;29709;52.396;16.796;2022-12-29T01:38:32;101040.45;;;8.19;75.63
44044;BME280;29709;52.396;16.796;2022-12-29T01:41:35;101036.13;;;8.26;74.97
44044;BME280;29709;52.396;16.796;2022-12-29T01:45:10;101034.55;;;8.24;75.27
44044;BME280;29709;52.396;16.796;2022-12-29T01:48:15;101029.78;;;8.26;74.63
44044;BME280;29709;52.396;16.796;2022-12-29T01:51:22;101029.07;;;8.24;75.20
44044;BME280;29709;52.396;16.796;2022-12-29T01:54:32;101005.85;;;8.28;74.96
44044;BME280;29709;52.396;16.796;2022-12-29T01:57:38;101001.23;;;8.28;75.18
44044;BME280;29709;52.396;16.796;2022-12-29T02:00:44;100996.07;;;8.35;74.79
44044;BME280;29709;52.396;16.796;2022-12-29T02:04:14;100993.42;;;8.33;74.42
44044;BME280;29709;52.396;16.796;2022-12-29T02:07:20;100991.15;;;8.38;74.42
44044;BME280;29709;52.396;16.796;2022-12-29T02:10:26;100990.13;;;8.39;74.59
44044;BME280;29709;52.396;16.796;2022-12-29T02:13:30;100982.77;;;8.40;74.55
44044;BME280;29709;52.396;16.796;2022-12-29T02:32:52;100981.38;;;8.17;76.45
44044;BME280;29709;52.396;16.796;2022-12-29T02:36:07;100987.44;;;8.10;76.98
44044;BME280;29709;52.396;16.796;2022-12-29T02:45:57;100975.50;;;8.02;78.11
44044;BME280;29709;52.396;16.796;2022-12-29T02:52:19;100952.76;;;7.92;78.81
44044;BME280;29709;52.396;16.796;2022-12-29T02:55:25;100950.48;;;7.87;79.50
44044;BME280;29709;52.396;16.796;2022-12-29T02:58:53;100948.76;;;7.86;79.30
44044;BME280;29709;52.396;16.796;2022-12-29T03:02:08;100944.30;;;7.85;79.08
44044;BME280;29709;52.396;16.796;2022-12-29T03:08:44;100932.91;;;7.80;79.15
44044;BME280;29709;52.396;16.796;2022-12-29T03:11:59;100932.05;;;7.79;79.42
44044;BME280;29709;52.396;16.796;2022-12-29T03:15:28;100931.49;;;7.76;79.80
44044;BME280;29709;52.396;16.796;2022-12-29T03:18:42;100935.38;;;7.83;79.58
44044;BME280;29709;52.396;16.796;2022-12-29T03:21:52;100932.80;;;7.81;80.14
44044;BME280;29709;52.396;16.796;2022-12-29T03:25:18;100943.86;;;7.80;79.83
44044;BME280;29709;52.396;16.796;2022-12-29T03:28:35;100936.66;;;7.79;80.41
44044;BME280;29709;52.396;16.796;2022-12-29T03:31:38;100945.73;;;7.79;80.54
44044;BME280;29709;52.396;16.796;2022-12-29T03:35:11;100938.84;;;7.75;80.68
44044;BME280;29709;52.396;16.796;2022-12-29T03:41:33;100936.26;;;7.74;81.38
44044;BME280;29709;52.396;16.796;2022-12-29T03:44:39;100943.00;;;7.79;80.98
44044;BME280;29709;52.396;16.796;2022-12-29T03:47:43;100926.02;;;7.76;81.62
44044;BME280;29709;52.396;16.796;2022-12-29T03:50:46;100931.90;;;7.81;80.89
44044;BME280;29709;52.396;16.796;2022-12-29T03:54:17;100926.74;;;7.78;81.10
44044;BME280;29709;52.396;16.796;2022-12-29T03:57:20;100925.02;;;7.77;81.20
44044;BME280;29709;52.396;16.796;2022-12-29T04:00:24;100918.37;;;7.79;81.01
44044;BME280;29709;52.396;16.796;2022-12-29T04:03:27;100921.97;;;7.80;80.97
44044;BME280;29709;52.396;16.796;2022-12-29T04:06:30;100914.36;;;7.84;80.82
44044;BME280;29709;52.396;16.796;2022-12-29T04:09:33;100905.53;;;7.90;80.66
44044;BME280;29709;52.396;16.796;2022-12-29T04:12:37;100902.64;;;7.91;80.34
44044;BME280;29709;52.396;16.796;2022-12-29T04:15:40;100906.12;;;7.93;79.87
44044;BME280;29709;52.396;16.796;2022-12-29T04:18:45;100897.90;;;7.93;80.07
44044;BME280;29709;52.396;16.796;2022-12-29T04:21:48;100892.98;;;7.97;79.91
44044;BME280;29709;52.396;16.796;2022-12-29T04:25:17;100896.03;;;7.94;79.17
44044;BME280;29709;52.396;16.796;2022-12-29T04:28:20;100887.82;;;7.94;79.23
44044;BME280;29709;52.396;16.796;2022-12-29T04:31:23;100896.03;;;7.94;79.02
44044;BME280;29709;52.396;16.796;2022-12-29T04:34:27;100896.58;;;7.97;79.04
44044;BME280;29709;52.396;16.796;2022-12-29T04:37:30;100914.73;;;7.98;78.64
44044;BME280;29709;52.396;16.796;2022-12-29T04:40:33;100914.30;;;8.03;78.48
44044;BME280;29709;52.396;16.796;2022-12-29T04:43:37;100903.20;;;8.04;78.07
44044;BME280;29709;52.396;16.796;2022-12-29T04:46:40;100878.41;;;8.06;77.84
44044;BME280;29709;52.396;16.796;2022-12-29T04:49:43;100886.62;;;8.06;77.65
44044;BME280;29709;52.396;16.796;2022-12-29T04:52:46;100891.23;;;8.05;77.48
44044;BME280;29709;52.396;16.796;2022-12-29T04:56:17;100888.65;;;8.04;77.42
44044;BME280;29709;52.396;16.796;2022-12-29T04:59:20;100885.91;;;8.04;77.31
44044;BME280;29709;52.396;16.796;2022-12-29T05:02:23;100871.36;;;8.03;77.55
44044;BME280;29709;52.396;16.796;2022-12-29T05:05:27;100872.78;;;8.07;77.76
44044;BME280;29709;52.396;16.796;2022-12-29T05:08:30;100866.99;;;8.10;77.12
44044;BME280;29709;52.396;16.796;2022-12-29T05:11:33;100868.88;;;8.10;77.16
44044;BME280;29709;52.396;16.796;2022-12-29T05:14:41;100855.89;;;8.12;76.52
44044;BME280;29709;52.396;16.796;2022-12-29T05:21:37;100836.29;;;8.17;76.91
44044;BME280;29709;52.396;16.796;2022-12-29T05:24:41;100842.46;;;8.19;76.40
44044;BME280;29709;52.396;16.796;2022-12-29T05:27:45;100839.19;;;8.15;76.25
44044;BME280;29709;52.396;16.796;2022-12-29T05:30:51;100833.71;;;8.15;76.44
44044;BME280;29709;52.396;16.796;2022-12-29T05:33:55;100836.44;;;8.15;76.22
44044;BME280;29709;52.396;16.796;2022-12-29T05:37:11;100833.98;;;8.12;75.93
44044;BME280;29709;52.396;16.796;2022-12-29T05:40:17;100834.45;;;8.07;76.07
44044;BME280;29709;52.396;16.796;2022-12-29T05:43:55;100833.44;;;8.08;76.31
44044;BME280;29709;52.396;16.796;2022-12-29T05:47:09;100834.45;;;8.07;76.87
44044;BME280;29709;52.396;16.796;2022-12-29T05:50:32;100830.26;;;8.13;76.64
44044;BME280;29709;52.396;16.796;2022-12-29T05:53:38;100824.16;;;8.19;76.12
44044;BME280;29709;52.396;16.796;2022-12-29T05:56:42;100824.16;;;8.19;76.40
44044;BME280;29709;52.396;16.796;2022-12-29T06:00:16;100823.14;;;8.20;76.29
44044;BME280;29709;52.396;16.796;2022-12-29T06:03:43;100831.62;;;8.27;76.04
44044;BME280;29709;52.396;16.796;2022-12-29T06:06:59;100834.20;;;8.28;76.07
44044;BME280;29709;52.396;16.796;2022-12-29T06:10:06;100825.67;;;8.31;75.81
44044;BME280;29709;52.396;16.796;2022-12-29T06:13:30;100836.06;;;8.37;75.88
44044;BME280;29709;52.396;16.796;2022-12-29T06:16:55;100842.78;;;8.43;76.01
44044;BME280;29709;52.396;16.796;2022-12-29T06:20:20;100834.44;;;8.45;75.96
44044;BME280;29709;52.396;16.796;2022-12-29T06:23:54;100828.96;;;8.45;75.92
44044;BME280;29709;52.396;16.796;2022-12-29T06:27:21;100836.01;;;8.47;76.03
44044;BME280;29709;52.396;16.796;2022-12-29T06:30:38;100849.69;;;8.47;75.71
44044;BME280;29709;52.396;16.796;2022-12-29T06:34:02;100846.09;;;8.47;76.08
44044;BME280;29709;52.396;16.796;2022-12-29T06:37:36;100846.80;;;8.49;75.78
44044;BME280;29709;52.396;16.796;2022-12-29T06:40:53;100856.03;;;8.48;75.68
44044;BME280;29709;52.396;16.796;2022-12-29T06:44:05;100839.27;;;8.51;76.21
44044;BME280;29709;52.396;16.796;2022-12-29T06:47:12;100833.64;;;8.52;75.65
44044;BME280;29709;52.396;16.796;2022-12-29T06:51:12;100838.11;;;8.53;75.86
44044;BME280;29709;52.396;16.796;2022-12-29T06:54:20;100845.88;;;8.58;75.55
44044;BME280;29709;52.396;16.796;2022-12-29T06:57:28;100849.87;;;8.63;75.73
44044;BME280;29709;52.396;16.796;2022-12-29T07:00:41;100844.96;;;8.67;75.57
44044;BME280;29709;52.396;16.796;2022-12-29T07:03:54;100846.90;;;8.75;75.82
44044;BME280;29709;52.396;16.796;2022-12-29T07:10:40;100853.11;;;8.77;75.55
44044;BME280;29709;52.396;16.796;2022-12-29T07:13:43;100854.67;;;8.79;75.40
44044;BME280;29709;52.396;16.796;2022-12-29T07:16:47;100845.43;;;8.80;75.47
44044;BME280;29709;52.396;16.796;2022-12-29T07:19:53;100853.03;;;8.86;75.43
44044;BME280;29709;52.396;16.796;2022-12-29T07:22:58;100852.72;;;8.89;75.21
44044;BME280;29709;52.396;16.796;2022-12-29T07:26:11;100837.82;;;8.92;75.21
44044;BME280;29709;52.396;16.796;2022-12-29T07:29:23;100845.61;;;8.96;75.28
44044;BME280;29709;52.396;16.796;2022-12-29T07:32:38;100838.08;;;8.99;74.89
44044;BME280;29709;52.396;16.796;2022-12-29T07:35:51;100836.20;;;8.99;75.01
44044;BME280;29709;52.396;16.796;2022-12-29T07:39:22;100842.70;;;8.98;75.02
44044;BME280;29709;52.396;16.796;2022-12-29T07:42:26;100832.97;;;9.04;75.01
44044;BME280;29709;52.396;16.796;2022-12-29T07:45:35;100839.71;;;9.09;74.82
44044;BME280;29709;52.396;16.796;2022-12-29T07:48:38;100838.52;;;9.12;74.74
44044;BME280;29709;52.396;16.796;2022-12-29T07:51:41;100844.09;;;9.20;74.15
44044;BME280;29709;52.396;16.796;2022-12-29T07:54:45;100851.13;;;9.22;74.17
44044;BME280;29709;52.396;16.796;2022-12-29T07:57:53;100849.65;;;9.28;73.92
44044;BME280;29709;52.396;16.796;2022-12-29T08:00:56;100839.38;;;9.30;73.65
44044;BME280;29709;52.396;16.796;2022-12-29T08:04:27;100835.98;;;9.36;73.42
44044;BME280;29709;52.396;16.796;2022-12-29T08:07:31;100830.49;;;9.36;73.13
44044;BME280;29709;52.396;16.796;2022-12-29T08:10:34;100842.72;;;9.42;73.42
44044;BME280;29709;52.396;16.796;2022-12-29T08:13:37;100839.48;;;9.46;73.28
44044;BME280;29709;52.396;16.796;2022-12-29T08:16:41;100846.39;;;9.50;72.96
44044;BME280;29709;52.396;16.796;2022-12-29T08:19:44;100845.20;;;9.53;73.06
44044;BME280;29709;52.396;16.796;2022-12-29T08:22:47;100842.98;;;9.57;72.72
44044;BME280;29709;52.396;16.796;2022-12-29T08:25:59;100848.17;;;9.60;72.76
44044;BME280;29709;52.396;16.796;2022-12-29T08:29:04;100841.49;;;9.62;72.62
44044;BME280;29709;52.396;16.796;2022-12-29T08:32:33;100854.19;;;9.63;72.64
44044;BME280;29709;52.396;16.796;2022-12-29T08:35:39;100860.04;;;9.68;72.55
44044;BME280;29709;52.396;16.796;2022-12-29T08:38:42;100855.81;;;9.74;72.50
44044;BME280;29709;52.396;16.796;2022-12-29T08:41:45;100856.33;;;9.77;72.41
44044;BME280;29709;52.396;16.796;2022-12-29T08:44:49;100853.28;;;9.80;72.21
44044;BME280;29709;52.396;16.796;2022-12-29T08:47:52;100852.78;;;9.85;72.17
44044;BME280;29709;52.396;16.796;2022-12-29T08:50:56;100853.98;;;9.82;72.28
44044;BME280;29709;52.396;16.796;2022-12-29T08:53:59;100849.34;;;9.83;72.57
44044;BME280;29709;52.396;16.796;2022-12-29T08:57:03;100858.27;;;9.85;72.55
44044;BME280;29709;52.396;16.796;2022-12-29T09:00:33;100863.43;;;9.88;72.46
44044;BME280;29709;52.396;16.796;2022-12-29T09:03:39;100859.36;;;9.92;72.60
44044;BME280;29709;52.396;16.796;2022-12-29T09:06:43;100853.36;;;9.97;72.74
44044;BME280;29709;52.396;16.796;2022-12-29T09:09:47;100844.66;;;10.01;72.54
44044;BME280;29709;52.396;16.796;2022-12-29T09:12:50;100849.30;;;10.09;72.31
44044;BME280;29709;52.396;16.796;2022-12-29T09:15:59;100846.77;;;10.16;72.39
44044;BME280;29709;52.396;16.796;2022-12-29T09:19:03;100841.53;;;10.22;72.40
44044;BME280;29709;52.396;16.796;2022-12-29T09:22:06;100839.81;;;10.29;72.40
44044;BME280;29709;52.396;16.796;2022-12-29T09:25:36;100845.35;;;10.37;71.79
44044;BME280;29709;52.396;16.796;2022-12-29T09:28:42;100846.75;;;10.50;72.11
44044;BME280;29709;52.396;16.796;2022-12-29T09:31:47;100852.97;;;10.60;71.71
44044;BME280;29709;52.396;16.796;2022-12-29T09:34:53;100848.16;;;10.62;71.14
44044;BME280;29709;52.396;16.796;2022-12-29T09:38:02;100831.36;;;10.65;70.75
44044;BME280;29709;52.396;16.796;2022-12-29T09:45:00;100832.59;;;10.79;70.67
44044;BME280;29709;52.396;16.796;2022-12-29T09:48:13;100832.95;;;10.84;70.74
44044;BME280;29709;52.396;16.796;2022-12-29T09:51:27;100819.20;;;10.92;70.20
44044;BME280;29709;52.396;16.796;2022-12-29T09:57:54;100819.91;;;11.10;69.51
44044;BME280;29709;52.396;16.796;2022-12-29T10:01:05;100823.16;;;11.14;69.66
44044;BME280;29709;52.396;16.796;2022-12-29T10:04:18;100817.66;;;11.22;69.33
44044;BME280;29709;52.396;16.796;2022-12-29T10:10:43;100820.74;;;11.43;68.93
44044;BME280;29709;52.396;16.796;2022-12-29T10:20:56;100816.31;;;11.26;68.73
44044;BME280;29709;52.396;16.796;2022-12-29T10:24:04;100815.45;;;11.25;68.90
44044;BME280;29709;52.396;16.796;2022-12-29T10:27:13;100820.77;;;11.27;69.17
44044;BME280;29709;52.396;16.796;2022-12-29T10:30:19;100814.24;;;11.36;68.98
44044;BME280;29709;52.396;16.796;2022-12-29T10:33:57;100807.48;;;11.55;68.51
44044;BME280;29709;52.396;16.796;2022-12-29T10:37:05;100803.67;;;11.72;67.72
44044;BME280;29709;52.396;16.796;2022-12-29T10:40:22;100809.87;;;11.82;67.08
44044;BME280;29709;52.396;16.796;2022-12-29T10:43:29;100807.77;;;11.76;67.36
44044;BME280;29709;52.396;16.796;2022-12-29T10:46:35;100799.54;;;11.84;66.91
44044;BME280;29709;52.396;16.796;2022-12-29T10:49:41;100803.30;;;11.92;67.23
44044;BME280;29709;52.396;16.796;2022-12-29T10:53:19;100807.41;;;11.96;66.99
44044;BME280;29709;52.396;16.796;2022-12-29T10:56:44;100801.89;;;12.04;66.78
44044;BME280;29709;52.396;16.796;2022-12-29T10:59:47;100790.81;;;12.20;67.03
44044;BME280;29709;52.396;16.796;2022-12-29T11:03:15;100790.23;;;12.33;66.70
44044;BME280;29709;52.396;16.796;2022-12-29T11:03:51;100790.23;;;12.33;66.70
44044;BME280;29709;52.396;16.796;2022-12-29T11:06:29;100788.97;;;12.43;65.97
44044;BME280;29709;52.396;16.796;2022-12-29T11:09:36;100772.72;;;12.49;66.17
44044;BME280;29709;52.396;16.796;2022-12-29T11:15:57;100763.74;;;12.55;65.39
44044;BME280;29709;52.396;16.796;2022-12-29T11:19:03;100762.32;;;12.59;65.11
44044;BME280;29709;52.396;16.796;2022-12-29T11:22:31;100767.17;;;12.57;65.35
44044;BME280;29709;52.396;16.796;2022-12-29T11:25:40;100761.74;;;12.71;65.21
44044;BME280;29709;52.396;16.796;2022-12-29T11:32:17;100756.57;;;12.91;64.06
44044;BME280;29709;52.396;16.796;2022-12-29T11:38:34;100760.02;;;12.93;63.82
44044;BME280;29709;52.396;16.796;2022-12-29T11:41:38;100753.52;;;12.86;64.38
44044;BME280;29709;52.396;16.796;2022-12-29T11:45:16;100765.78;;;12.84;64.34
44044;BME280;29709;52.396;16.796;2022-12-29T11:48:38;100755.29;;;12.79;64.61
44044;BME280;29709;52.396;16.796;2022-12-29T11:52:01;100752.29;;;12.66;64.64
44044;BME280;29709;52.396;16.796;2022-12-29T11:58:35;100749.77;;;12.56;64.88
44044;BME280;29709;52.396;16.796;2022-12-29T12:01:56;100752.52;;;12.56;65.28
44044;BME280;29709;52.396;16.796;2022-12-29T12:11:59;100746.53;;;12.53;65.55
44044;BME280;29709;52.396;16.796;2022-12-29T12:15:04;100751.48;;;12.57;65.22
44044;BME280;29709;52.396;16.796;2022-12-29T12:21:34;100754.91;;;12.59;65.43
44044;BME280;29709;52.396;16.796;2022-12-29T12:25:03;100748.87;;;12.64;65.25
44044;BME280;29709;52.396;16.796;2022-12-29T12:34:49;100740.46;;;12.80;64.88
44044;BME280;29709;52.396;16.796;2022-12-29T12:45:26;100736.36;;;12.76;64.98
44044;BME280;29709;52.396;16.796;2022-12-29T12:52:32;100728.81;;;12.70;65.18
44044;BME280;29709;52.396;16.796;2022-12-29T12:59:17;100728.33;;;12.66;64.81
44044;BME280;29709;52.396;16.796;2022-12-29T13:02:59;100736.47;;;12.60;65.09
44044;BME280;29709;52.396;16.796;2022-12-29T13:06:15;100735.31;;;12.54;65.24
44044;BME280;29709;52.396;16.796;2022-12-29T13:40:00;100745.54;;;12.46;64.44
44044;BME280;29709;52.396;16.796;2022-12-29T13:43:33;100745.24;;;12.40;64.36
44044;BME280;29709;52.396;16.796;2022-12-29T13:47:05;100736.07;;;12.40;64.53
44044;BME280;29709;52.396;16.796;2022-12-29T13:50:15;100737.98;;;12.39;64.46
44044;BME280;29709;52.396;16.796;2022-12-29T14:00:40;100742.52;;;12.32;65.19
44044;BME280;29709;52.396;16.796;2022-12-29T14:04:02;100756.63;;;12.29;64.85
44044;BME280;29709;52.396;16.796;2022-12-29T14:07:29;100750.82;;;12.24;64.75
44044;BME280;29709;52.396;16.796;2022-12-29T14:10:54;100750.49;;;12.19;65.04
44044;BME280;29709;52.396;16.796;2022-12-29T14:17:23;100745.72;;;12.13;65.79
44044;BME280;29709;52.396;16.796;2022-12-29T14:20:40;100751.75;;;12.08;66.34
44044;BME280;29709;52.396;16.796;2022-12-29T14:23:52;100747.84;;;12.03;66.24
44044;BME280;29709;52.396;16.796;2022-12-29T14:40:36;100768.80;;;12.12;66.51
44044;BME280;29709;52.396;16.796;2022-12-29T14:43:39;100757.81;;;12.04;66.79
44044;BME280;29709;52.396;16.796;2022-12-29T14:47:11;100768.85;;;11.96;67.14
44044;BME280;29709;52.396;16.796;2022-12-29T14:50:23;100750.13;;;11.91;67.22
44044;BME280;29709;52.396;16.796;2022-12-29T14:56:47;100752.04;;;11.74;67.88
44044;BME280;29709;52.396;16.796;2022-12-29T15:02:20;100752.77;;;11.68;68.05
44044;BME280;29709;52.396;16.796;2022-12-29T15:08:46;100751.36;;;11.72;67.47
44044;BME280;29709;52.396;16.796;2022-12-29T15:11:56;100761.16;;;11.75;67.43
44044;BME280;29709;52.396;16.796;2022-12-29T15:15:10;100771.84;;;11.78;67.48
44044;BME280;29709;52.396;16.796;2022-12-29T15:21:29;100755.32;;;11.78;66.86
44044;BME280;29709;52.396;16.796;2022-12-29T15:24:32;100764.45;;;11.70;66.73
44044;BME280;29709;52.396;16.796;2022-12-29T15:28:04;100768.57;;;11.66;66.88
44044;BME280;29709;52.396;16.796;2022-12-29T15:31:16;100766.68;;;11.67;66.98
44044;BME280;29709;52.396;16.796;2022-12-29T15:34:20;100771.87;;;11.62;66.80
44044;BME280;29709;52.396;16.796;2022-12-29T15:37:37;100767.58;;;11.59;66.74
44044;BME280;29709;52.396;16.796;2022-12-29T15:40:38;100774.98;;;11.59;66.79
44044;BME280;29709;52.396;16.796;2022-12-29T15:43:50;100770.66;;;11.56;67.04
44044;BME280;29709;52.396;16.796;2022-12-29T15:46:56;100774.62;;;11.53;66.88
44044;BME280;29709;52.396;16.796;2022-12-29T15:50:29;100779.82;;;11.48;67.09
44044;BME280;29709;52.396;16.796;2022-12-29T15:53:33;100777.25;;;11.47;66.84
44044;BME280;29709;52.396;16.796;2022-12-29T15:56:36;100784.83;;;11.37;67.22
44044;BME280;29709;52.396;16.796;2022-12-29T15:59:45;100786.88;;;11.35;67.34
44044;BME280;29709;52.396;16.796;2022-12-29T16:02:50;100787.58;;;11.28;67.63
44044;BME280;29709;52.396;16.796;2022-12-29T16:05:56;100780.01;;;11.22;67.66
44044;BME280;29709;52.396;16.796;2022-12-29T16:09:06;100785.69;;;11.21;67.79
44044;BME280;29709;52.396;16.796;2022-12-29T16:12:21;100781.57;;;11.17;67.71
44044;BME280;29709;52.396;16.796;2022-12-29T16:15:27;100795.65;;;11.14;67.89
44044;BME280;29709;52.396;16.796;2022-12-29T16:18:36;100798.75;;;11.11;68.09
44044;BME280;29709;52.396;16.796;2022-12-29T16:21:41;100800.64;;;11.10;67.77
44044;BME280;29709;52.396;16.796;2022-12-29T16:25:19;100817.68;;;11.06;67.81
44044;BME280;29709;52.396;16.796;2022-12-29T16:31:49;100819.21;;;11.00;67.96
44044;BME280;29709;52.396;16.796;2022-12-29T16:38:16;100845.66;;;10.93;68.20
44044;BME280;29709;52.396;16.796;2022-12-29T16:41:28;100845.32;;;10.88;68.12
44044;BME280;29709;52.396;16.796;2022-12-29T16:44:31;100843.43;;;10.88;68.21
44044;BME280;29709;52.396;16.796;2022-12-29T16:48:10;100853.92;;;10.85;68.34
44044;BME280;29709;52.396;16.796;2022-12-29T16:54:34;100846.35;;;10.87;68.16
44044;BME280;29709;52.396;16.796;2022-12-29T16:57:38;100853.57;;;10.88;67.93
44044;BME280;29709;52.396;16.796;2022-12-29T17:00:46;100851.30;;;10.83;67.95
44044;BME280;29709;52.396;16.796;2022-12-29T17:04:15;100852.17;;;10.76;68.34
44044;BME280;29709;52.396;16.796;2022-12-29T17:07:21;100854.23;;;10.74;68.42
44044;BME280;29709;52.396;16.796;2022-12-29T17:10:25;100855.95;;;10.75;68.59
44044;BME280;29709;52.396;16.796;2022-12-29T17:13:39;100856.99;;;10.74;68.63
44044;BME280;29709;52.396;16.796;2022-12-29T17:16:42;100842.89;;;10.77;68.77
44044;BME280;29709;52.396;16.796;2022-12-29T17:19:51;100852.01;;;10.77;68.83
44044;BME280;29709;52.396;16.796;2022-12-29T17:22:58;100844.96;;;10.75;68.72
44044;BME280;29709;52.396;16.796;2022-12-29T17:26:28;100854.76;;;10.77;68.88
44044;BME280;29709;52.396;16.796;2022-12-29T17:29:35;100853.20;;;10.83;68.81
44044;BME280;29709;52.396;16.796;2022-12-29T17:32:41;100850.82;;;10.88;68.53
44044;BME280;29709;52.396;16.796;2022-12-29T17:35:45;100852.71;;;10.87;68.50
44044;BME280;29709;52.396;16.796;2022-12-29T17:38:49;100858.72;;;10.91;68.16
44044;BME280;29709;52.396;16.796;2022-12-29T17:41:52;100862.67;;;10.88;68.10
44044;BME280;29709;52.396;16.796;2022-12-29T17:44:55;100859.07;;;10.88;68.33
44044;BME280;29709;52.396;16.796;2022-12-29T17:47:59;100860.62;;;10.90;68.40
44044;BME280;29709;52.396;16.796;2022-12-29T17:51:03;100862.02;;;10.94;68.12
44044;BME280;29709;52.396;16.796;2022-12-29T17:54:33;100866.79;;;10.92;68.25
44044;BME280;29709;52.396;16.796;2022-12-29T17:57:36;100856.84;;;10.91;68.22
44044;BME280;29709;52.396;16.796;2022-12-29T18:00:39;100853.39;;;10.89;68.18
44044;BME280;29709;52.396;16.796;2022-12-29T18:03:43;100868.84;;;10.82;68.33
44044;BME280;29709;52.396;16.796;2022-12-29T18:06:46;100872.95;;;10.78;68.44
44044;BME280;29709;52.396;16.796;2022-12-29T18:09:50;100873.62;;;10.72;68.69
44044;BME280;29709;52.396;16.796;2022-12-29T18:12:55;100877.91;;;10.66;69.03
44044;BME280;29709;52.396;16.796;2022-12-29T18:16:00;100878.74;;;10.59;68.92
44044;BME280;29709;52.396;16.796;2022-12-29T18:19:04;100890.89;;;10.48;69.39
44044;BME280;29709;52.396;16.796;2022-12-29T18:22:33;100896.36;;;10.40;69.65
44044;BME280;29709;52.396;16.796;2022-12-29T18:25:43;100897.38;;;10.39;69.53
44044;BME280;29709;52.396;16.796;2022-12-29T18:28:49;100898.92;;;10.33;69.70
44044;BME280;29709;52.396;16.796;2022-12-29T18:31:53;100892.70;;;10.31;69.84
44044;BME280;29709;52.396;16.796;2022-12-29T18:34:56;100895.61;;;10.30;69.74
44044;BME280;29709;52.396;16.796;2022-12-29T18:37:59;100894.59;;;10.31;69.83
44044;BME280;29709;52.396;16.796;2022-12-29T18:41:03;100909.69;;;10.27;69.78
44044;BME280;29709;52.396;16.796;2022-12-29T18:44:11;100900.17;;;10.21;69.97
44044;BME280;29709;52.396;16.796;2022-12-29T18:47:40;100914.91;;;10.12;70.21
44044;BME280;29709;52.396;16.796;2022-12-29T18:50:44;100908.39;;;10.13;70.37
44044;BME280;29709;52.396;16.796;2022-12-29T18:53:49;100917.49;;;10.13;70.16
44044;BME280;29709;52.396;16.796;2022-12-29T18:56:56;100919.67;;;10.10;70.41
44044;BME280;29709;52.396;16.796;2022-12-29T18:59:59;100916.24;;;10.08;70.31
44044;BME280;29709;52.396;16.796;2022-12-29T19:03:02;100917.27;;;10.07;70.28
44044;BME280;29709;52.396;16.796;2022-12-29T19:06:06;100909.53;;;10.02;70.43
44044;BME280;29709;52.396;16.796;2022-12-29T19:09:09;100915.71;;;10.04;70.15
44044;BME280;29709;52.396;16.796;2022-12-29T19:12:15;100916.04;;;10.01;70.16
44044;BME280;29709;52.396;16.796;2022-12-29T19:15:45;100927.66;;;9.95;70.48
44044;BME280;29709;52.396;16.796;2022-12-29T19:18:49;100925.24;;;9.92;70.49
44044;BME280;29709;52.396;16.796;2022-12-29T19:21:52;100926.10;;;9.93;70.63
44044;BME280;29709;52.396;16.796;2022-12-29T19:25:00;100931.04;;;9.89;70.78
44044;BME280;29709;52.396;16.796;2022-12-29T19:28:05;100935.37;;;9.92;70.71